createdAt,value
2024-02-14T00:02:24.670Z,85175.88
2024-02-14T00:04:51.375Z,85172.56
2024-02-14T00:07:18.016Z,85174.50
2024-02-14T00:09:44.700Z,85180.00
2024-02-14T00:12:12.804Z,85172.38
2024-02-14T00:14:39.723Z,85180.66
2024-02-14T00:17:07.198Z,85174.59
2024-02-14T00:19:33.828Z,85170.41
2024-02-14T00:22:01.545Z,85179.31
2024-02-14T00:24:30.695Z,85170.34
2024-02-14T00:26:58.125Z,85174.53
2024-02-14T00:29:25.508Z,85177.22
2024-02-14T00:31:52.190Z,85177.88
2024-02-14T00:34:19.027Z,85172.41
2024-02-14T00:36:45.880Z,85176.50
2024-02-14T00:39:12.509Z,85168.25
2024-02-14T00:41:39.368Z,85179.91
2024-02-14T00:44:06.159Z,85175.16
2024-02-14T00:46:32.803Z,85179.88
2024-02-14T00:49:00.859Z,85175.16
2024-02-14T00:51:27.670Z,85174.50
2024-02-14T00:53:54.526Z,85177.16
2024-02-14T00:56:21.260Z,85167.66
2024-02-14T00:58:47.953Z,85171.78
2024-02-14T01:01:14.551Z,85174.63
2024-02-14T01:03:41.354Z,85181.97
2024-02-14T01:06:08.247Z,85173.84
2024-02-14T01:08:35.724Z,85173.84
2024-02-14T01:11:02.397Z,85172.41
2024-02-14T01:13:29.130Z,85175.94
2024-02-14T01:15:55.768Z,85179.28
2024-02-14T01:18:22.636Z,85173.81
2024-02-14T01:20:49.363Z,85182.69
2024-02-14T01:23:16.124Z,85179.94
2024-02-14T01:25:43.922Z,85182.00
2024-02-14T01:28:10.718Z,85184.81
2024-02-14T01:30:37.390Z,85184.72
2024-02-14T01:33:07.287Z,85181.34
2024-02-14T01:35:34.217Z,85182.03
2024-02-14T01:38:00.912Z,85182.06
2024-02-14T01:40:27.550Z,85180.63
2024-02-14T01:42:54.147Z,85182.63
2024-02-14T01:45:21.000Z,85188.84
2024-02-14T01:47:47.850Z,85190.84
2024-02-14T01:50:14.520Z,85190.25
2024-02-14T01:52:41.575Z,85186.09
2024-02-14T01:55:08.385Z,85187.47
2024-02-14T01:57:35.302Z,85185.38
2024-02-14T02:00:05.911Z,85192.81
2024-02-14T02:02:33.330Z,85188.03
2024-02-14T02:05:00.542Z,85185.97
2024-02-14T02:07:27.237Z,85184.66
2024-02-14T02:09:53.993Z,85183.28
2024-02-14T02:12:21.001Z,85176.44
2024-02-14T02:14:47.682Z,85178.50
2024-02-14T02:17:14.960Z,85179.16
2024-02-14T02:19:41.669Z,85178.56
2024-02-14T02:22:09.253Z,85175.78
2024-02-14T02:24:36.061Z,85183.38
2024-02-14T02:27:03.417Z,85173.81
2024-02-14T02:29:30.093Z,85178.38
2024-02-14T02:31:56.771Z,85183.25
2024-02-14T02:34:23.651Z,85189.47
2024-02-14T02:36:52.401Z,85181.25
2024-02-14T02:39:19.068Z,85193.94
2024-02-14T02:41:48.456Z,85191.06
2024-02-14T02:44:15.157Z,85196.75
2024-02-14T02:46:41.765Z,85201.47
2024-02-14T02:49:08.996Z,85196.69
2024-02-14T02:51:35.801Z,85201.75
2024-02-14T02:54:04.101Z,85201.41
2024-02-14T02:56:30.928Z,85189.47
2024-02-14T02:58:57.670Z,85203.50
2024-02-14T03:01:26.430Z,85205.25
2024-02-14T03:03:53.308Z,85209.88
2024-02-14T03:06:21.710Z,85201.13
2024-02-14T03:08:49.958Z,85213.44
2024-02-14T03:11:16.765Z,85210.72
2024-02-14T03:13:45.650Z,85213.53
2024-02-14T03:16:12.516Z,85216.81
2024-02-14T03:18:40.056Z,85221.06
2024-02-14T03:21:07.697Z,85218.19
2024-02-14T03:23:34.456Z,85226.53
2024-02-14T03:26:01.372Z,85232.66
2024-02-14T03:28:28.822Z,85223.81
2024-02-14T03:30:55.623Z,85229.31
2024-02-14T03:33:23.282Z,85227.25
2024-02-14T03:35:50.110Z,85238.91
2024-02-14T03:38:26.003Z,85234.09
2024-02-14T03:40:52.697Z,85229.25
2024-02-14T03:43:19.272Z,85235.41
2024-02-14T03:45:45.861Z,85232.69
2024-02-14T03:48:13.334Z,85236.88
2024-02-14T03:50:40.523Z,85237.53
2024-02-14T03:53:07.340Z,85239.63
2024-02-14T03:55:34.133Z,85232.06
2024-02-14T03:58:00.824Z,85240.31
2024-02-14T04:00:27.458Z,85240.28
2024-02-14T04:02:54.950Z,85236.09
2024-02-14T04:05:21.697Z,85243.75
2024-02-14T04:07:53.013Z,85242.97
2024-02-14T04:10:19.733Z,85246.44
2024-02-14T04:12:46.522Z,85247.81
2024-02-14T04:15:13.795Z,85243.75
2024-02-14T04:17:40.969Z,85239.59
2024-02-14T04:20:08.010Z,85242.34
2024-02-14T04:22:34.815Z,85245.13
2024-02-14T04:25:01.697Z,85244.97
2024-02-14T04:27:29.108Z,85256.09
2024-02-14T04:29:56.098Z,85251.84
2024-02-14T04:32:22.805Z,85257.47
2024-02-14T04:34:50.833Z,85255.34
2024-02-14T04:37:19.992Z,85265.03
2024-02-14T04:39:46.827Z,85265.03
2024-02-14T04:42:13.608Z,85265.72
2024-02-14T04:44:40.686Z,85273.25
2024-02-14T04:47:07.522Z,85273.88
2024-02-14T04:49:34.459Z,85273.28
2024-02-14T04:52:01.531Z,85273.81
2024-02-14T04:54:29.445Z,85280.72
2024-02-14T04:56:58.326Z,85280.47
2024-02-14T04:59:27.649Z,85282.97
2024-02-14T05:01:54.983Z,85284.25
2024-02-14T05:04:22.237Z,85293.72
2024-02-14T05:06:49.786Z,85286.00
2024-02-14T05:09:17.427Z,85296.88
2024-02-14T05:11:44.229Z,85301.00
2024-02-14T05:14:11.122Z,85298.81
2024-02-14T05:16:37.899Z,85292.00
2024-02-14T05:19:04.692Z,85298.75
2024-02-14T05:21:31.541Z,85306.94
2024-02-14T05:23:58.384Z,85312.31
2024-02-14T05:26:25.174Z,85306.81
2024-02-14T05:28:51.875Z,85311.78
2024-02-14T05:31:18.634Z,85314.50
2024-02-14T05:33:45.681Z,85311.06
2024-02-14T05:36:12.651Z,85322.00
2024-02-14T05:38:39.522Z,85323.97
2024-02-14T05:41:08.805Z,85324.72
2024-02-14T05:43:35.916Z,85326.03
2024-02-14T05:46:02.684Z,85324.63
2024-02-14T05:48:29.539Z,85329.25
2024-02-14T05:50:56.454Z,85332.69
2024-02-14T05:53:23.477Z,85333.47
2024-02-14T05:55:50.389Z,85340.25
2024-02-14T05:58:17.198Z,85340.88
2024-02-14T06:00:44.102Z,85340.91
2024-02-14T06:03:10.968Z,85347.06
2024-02-14T06:05:37.785Z,85351.75
2024-02-14T06:08:04.831Z,85355.81
2024-02-14T06:10:31.651Z,85354.59
2024-02-14T06:12:58.509Z,85360.03
2024-02-14T06:15:25.787Z,85364.16
2024-02-14T06:17:52.786Z,85368.31
2024-02-14T06:20:20.397Z,85364.31
2024-02-14T06:22:53.648Z,85371.78
2024-02-14T06:25:28.339Z,85368.94
2024-02-14T06:27:55.690Z,85368.94
2024-02-14T06:30:22.550Z,85375.72
2024-02-14T06:32:49.524Z,85377.63
2024-02-14T06:35:20.744Z,85377.69
2024-02-14T06:37:53.074Z,85373.72
2024-02-14T06:40:28.031Z,85372.97
2024-02-14T06:42:56.261Z,85380.47
2024-02-14T06:45:22.906Z,85381.97
2024-02-14T06:47:49.813Z,85381.81
2024-02-14T06:50:16.676Z,85382.63
2024-02-14T06:52:43.315Z,85390.84
2024-02-14T06:55:09.952Z,85388.13
2024-02-14T06:57:36.823Z,85388.72
2024-02-14T07:00:07.257Z,85394.16
2024-02-14T07:02:34.164Z,85396.88
2024-02-14T07:05:01.026Z,85392.84
2024-02-14T07:07:28.951Z,85394.88
2024-02-14T07:09:55.698Z,85400.28
2024-02-14T07:12:22.527Z,85397.56
2024-02-14T07:14:49.333Z,85398.28
2024-02-14T07:17:16.105Z,85396.88
2024-02-14T07:19:45.180Z,85401.06
2024-02-14T07:22:11.884Z,85406.34
2024-02-14T07:24:38.557Z,85402.28
2024-02-14T07:27:05.676Z,85400.25
2024-02-14T07:29:32.484Z,85408.53
2024-02-14T07:32:00.176Z,85413.97
2024-02-14T07:34:27.108Z,85413.38
2024-02-14T07:36:53.856Z,85416.84
2024-02-14T07:39:20.559Z,85416.75
2024-02-14T07:41:47.677Z,85419.50
2024-02-14T07:44:14.587Z,85423.56
2024-02-14T07:46:41.365Z,85426.25
2024-02-14T07:49:08.145Z,85434.53
2024-02-14T07:51:38.031Z,85437.19
2024-02-14T07:54:05.368Z,85433.69
2024-02-14T07:56:32.830Z,85442.66
2024-02-14T07:59:00.965Z,85439.88
2024-02-14T08:01:28.137Z,85438.53
2024-02-14T08:03:54.818Z,85437.84
2024-02-14T08:06:21.658Z,85439.94
2024-02-14T08:08:52.949Z,85448.09
2024-02-14T08:11:19.627Z,85451.56
2024-02-14T08:13:46.198Z,85448.75
2024-02-14T08:16:13.506Z,85451.53
2024-02-14T08:18:41.388Z,85448.81
2024-02-14T08:21:08.351Z,85448.81
2024-02-14T08:23:35.943Z,85459.78
2024-02-14T08:26:02.773Z,85454.22
2024-02-14T08:28:29.425Z,85451.47
2024-02-14T08:30:56.339Z,85454.13
2024-02-14T08:33:23.189Z,85460.16
2024-02-14T08:35:49.992Z,85461.69
2024-02-14T08:38:16.762Z,85459.69
2024-02-14T08:40:43.526Z,85462.50
2024-02-14T08:43:10.354Z,85477.41
2024-02-14T08:45:39.062Z,85470.53
2024-02-14T08:48:06.424Z,85477.44
2024-02-14T08:50:33.513Z,85468.56
2024-02-14T08:53:00.165Z,85472.03
2024-02-14T08:55:26.954Z,85478.81
2024-02-14T08:57:53.807Z,85482.91
2024-02-14T09:00:21.402Z,85484.28
2024-02-14T09:02:48.457Z,85480.09
2024-02-14T09:05:15.347Z,85489.69
2024-02-14T09:07:43.231Z,85490.41
2024-02-14T09:10:11.821Z,85495.22
2024-02-14T09:12:38.785Z,85495.16
2024-02-14T09:15:06.593Z,85502.69
2024-02-14T09:17:33.558Z,85484.22
2024-02-14T09:20:00.672Z,85487.50
2024-02-14T09:22:27.542Z,85483.44
2024-02-14T09:24:54.303Z,85494.44
2024-02-14T09:27:21.158Z,85495.88
2024-02-14T09:29:47.922Z,85503.84
2024-02-14T09:32:15.033Z,85495.06
2024-02-14T09:34:41.813Z,85495.81
2024-02-14T09:37:08.556Z,85495.16
2024-02-14T09:39:38.123Z,85495.94
2024-02-14T09:42:09.042Z,85493.69
2024-02-14T09:44:35.972Z,85493.69
2024-02-14T09:47:02.759Z,85489.63
2024-02-14T09:49:29.555Z,85495.03
2024-02-14T09:51:56.464Z,85492.28
2024-02-14T09:54:23.286Z,85491.00
2024-02-14T09:56:51.957Z,85496.59
2024-02-14T09:59:19.002Z,85490.03
2024-02-14T10:01:47.326Z,85488.44
2024-02-14T10:04:14.413Z,85487.53
2024-02-14T10:06:41.264Z,85477.50
2024-02-14T10:09:08.440Z,85481.25
2024-02-14T10:11:36.328Z,85480.13
2024-02-14T10:14:05.667Z,85480.00
2024-02-14T10:16:32.732Z,85475.72
2024-02-14T10:18:59.861Z,85484.84
2024-02-14T10:21:27.295Z,85479.28
2024-02-14T10:23:54.654Z,85490.28
2024-02-14T10:26:21.450Z,85484.09
2024-02-14T10:28:50.386Z,85486.44
2024-02-14T10:31:17.590Z,85486.75
2024-02-14T10:33:45.093Z,85482.75
2024-02-14T10:36:12.217Z,85481.16
2024-02-14T10:38:39.011Z,85483.56
2024-02-14T10:41:07.501Z,85481.13
2024-02-14T10:43:35.503Z,85481.56
2024-02-14T10:46:04.544Z,85485.78
2024-02-14T10:48:34.539Z,85478.09
2024-02-14T10:51:02.079Z,85473.63
2024-02-14T10:53:29.146Z,85478.66
2024-02-14T10:55:55.884Z,85481.47
2024-02-14T10:58:22.983Z,85477.91
2024-02-14T11:00:49.782Z,85476.78
2024-02-14T11:03:16.861Z,85486.63
2024-02-14T11:05:44.423Z,85493.31
2024-02-14T11:08:11.281Z,85480.00
2024-02-14T11:10:38.708Z,85498.13
2024-02-14T11:13:05.470Z,85492.44
2024-02-14T11:15:36.417Z,85491.88
2024-02-14T11:18:06.603Z,85484.94
2024-02-14T11:20:34.004Z,85492.47
2024-02-14T11:23:13.047Z,85496.03
2024-02-14T11:25:39.872Z,85489.63
2024-02-14T11:28:25.388Z,85494.00
2024-02-14T11:30:52.201Z,85503.22
2024-02-14T11:33:20.158Z,85500.22
2024-02-14T11:35:54.647Z,85491.56
2024-02-14T11:38:21.513Z,85498.81
2024-02-14T11:40:48.467Z,85500.72
2024-02-14T11:43:15.986Z,85505.66
2024-02-14T11:45:43.355Z,85502.19
2024-02-14T11:48:13.353Z,85510.38
2024-02-14T11:50:40.585Z,85511.13
2024-02-14T11:53:12.532Z,85504.19
2024-02-14T11:55:39.433Z,85509.31
2024-02-14T11:58:11.109Z,85511.75
2024-02-14T12:00:41.740Z,85521.81
2024-02-14T12:03:09.070Z,85521.03
2024-02-14T12:05:36.410Z,85518.22
2024-02-14T12:08:04.092Z,85523.59
2024-02-14T12:10:32.572Z,85521.31
2024-02-14T12:13:00.551Z,85517.84
2024-02-14T12:15:28.134Z,85521.78
2024-02-14T12:17:56.238Z,85517.03
2024-02-14T12:20:23.379Z,85519.03
2024-02-14T12:22:53.631Z,85516.09
2024-02-14T12:25:20.348Z,85517.41
2024-02-14T12:27:54.438Z,85521.56
2024-02-14T12:30:21.501Z,85518.66
2024-02-14T12:32:48.286Z,85517.38
2024-02-14T12:35:15.122Z,85519.53
2024-02-14T12:37:41.971Z,85528.47
2024-02-14T12:40:09.123Z,85521.47
2024-02-14T12:42:36.994Z,85518.03
2024-02-14T12:45:03.835Z,85518.72
2024-02-14T12:47:33.835Z,85513.22
2024-02-14T12:50:01.437Z,85516.59
2024-02-14T12:52:28.717Z,85514.47
2024-02-14T12:54:55.323Z,85517.22
2024-02-14T12:57:23.359Z,85517.22
2024-02-14T12:59:50.156Z,85519.94
2024-02-14T13:02:18.226Z,85526.59
2024-02-14T13:04:45.432Z,85512.91
2024-02-14T13:07:12.153Z,85521.22
2024-02-14T13:09:39.716Z,85522.56
2024-02-14T13:12:08.766Z,85532.66
2024-02-14T13:14:35.699Z,85517.56
2024-02-14T13:17:02.454Z,85525.13
2024-02-14T13:19:29.347Z,85523.78
2024-02-14T13:21:57.013Z,85521.72
2024-02-14T13:24:23.776Z,85522.97
2024-02-14T13:26:50.546Z,85521.72
2024-02-14T13:29:18.646Z,85524.31
2024-02-14T13:31:45.433Z,85523.72
2024-02-14T13:34:13.435Z,85520.84
2024-02-14T13:36:40.349Z,85520.97
2024-02-14T13:39:07.213Z,85529.25
2024-02-14T13:41:34.043Z,85524.38
2024-02-14T13:44:00.683Z,85527.16
2024-02-14T13:46:27.506Z,85522.34
2024-02-14T13:48:54.296Z,85525.72
2024-02-14T13:51:21.741Z,85531.19
2024-02-14T13:53:48.510Z,85525.59
2024-02-14T13:56:17.101Z,85533.84
2024-02-14T13:58:45.684Z,85540.13
2024-02-14T14:01:12.458Z,85537.91
2024-02-14T14:03:39.224Z,85539.97
2024-02-14T14:06:06.989Z,85543.38
2024-02-14T14:08:35.137Z,85543.44
2024-02-14T14:11:01.864Z,85541.59
2024-02-14T14:13:31.952Z,85547.41
2024-02-14T14:15:58.641Z,85544.59
2024-02-14T14:18:25.437Z,85549.25
2024-02-14T14:20:52.314Z,85551.31
2024-02-14T14:23:19.067Z,85542.84
2024-02-14T14:25:45.782Z,85550.34
2024-02-14T14:28:12.429Z,85558.00
2024-02-14T14:30:39.715Z,85544.91
2024-02-14T14:33:06.788Z,85560.72
2024-02-14T14:35:34.815Z,85566.00
2024-02-14T14:38:01.988Z,85565.34
2024-02-14T14:40:28.642Z,85567.78
2024-02-14T14:42:55.297Z,85564.44
2024-02-14T14:45:22.102Z,85572.16
2024-02-14T14:47:48.856Z,85566.75
2024-02-14T14:50:20.275Z,85573.50
2024-02-14T14:52:47.119Z,85587.56
2024-02-14T14:55:14.199Z,85574.16
2024-02-14T14:57:44.327Z,85576.06
2024-02-14T15:00:11.563Z,85587.06
2024-02-14T15:02:42.345Z,85581.78
2024-02-14T15:05:12.859Z,85584.09
2024-02-14T15:07:42.523Z,85592.25
2024-02-14T15:10:09.570Z,85578.72
2024-02-14T15:12:37.279Z,85583.34
2024-02-14T15:15:05.126Z,85587.75
2024-02-14T15:17:32.393Z,85590.16
2024-02-14T15:19:59.116Z,85583.72
2024-02-14T15:22:29.354Z,85582.41
2024-02-14T15:24:56.087Z,85583.19
2024-02-14T15:27:24.934Z,85588.44
2024-02-14T15:30:10.226Z,85598.47
2024-02-14T15:32:55.431Z,85595.22
2024-02-14T15:35:22.381Z,85599.88
2024-02-14T15:37:49.928Z,85592.53
2024-02-14T15:40:18.010Z,85605.44
2024-02-14T15:42:45.167Z,85602.91
2024-02-14T15:45:18.181Z,85612.94
2024-02-14T15:47:45.114Z,85609.22
2024-02-14T15:50:12.694Z,85621.78
2024-02-14T15:52:39.642Z,85622.94
2024-02-14T15:55:09.184Z,85620.81
2024-02-14T15:57:36.489Z,85621.16
2024-02-14T16:00:07.197Z,85626.94
2024-02-14T16:02:34.068Z,85632.97
2024-02-14T16:05:00.854Z,85637.25
2024-02-14T16:07:27.753Z,85640.47
2024-02-14T16:09:54.421Z,85645.63
2024-02-14T16:12:21.102Z,85648.63
2024-02-14T16:14:48.611Z,85645.16
2024-02-14T16:17:18.159Z,85642.25
2024-02-14T16:19:44.992Z,85646.63
2024-02-14T16:22:16.680Z,85655.69
2024-02-14T16:24:44.273Z,85659.13
2024-02-14T16:27:11.111Z,85664.09
2024-02-14T16:29:39.563Z,85665.28
2024-02-14T16:32:08.326Z,85669.69
2024-02-14T16:34:39.039Z,85683.78
2024-02-14T16:37:05.762Z,85673.94
2024-02-14T16:39:41.633Z,85673.97
2024-02-14T16:42:11.297Z,85678.81
2024-02-14T16:44:39.117Z,85682.63
2024-02-14T16:47:06.140Z,85688.00
2024-02-14T16:49:34.118Z,85683.34
2024-02-14T16:52:00.962Z,85688.06
2024-02-14T16:54:29.699Z,85696.47
2024-02-14T16:57:00.954Z,85694.41
2024-02-14T16:59:27.699Z,85702.91
2024-02-14T17:01:54.501Z,85696.97
2024-02-14T17:04:21.416Z,85704.59
2024-02-14T17:06:48.276Z,85697.47
2024-02-14T17:09:15.058Z,85702.06
2024-02-14T17:11:42.227Z,85701.41
2024-02-14T17:14:11.172Z,85694.22
2024-02-14T17:16:38.497Z,85692.03
2024-02-14T17:19:06.987Z,85694.88
2024-02-14T17:21:33.954Z,85689.91
2024-02-14T17:24:01.850Z,85695.28
2024-02-14T17:26:28.666Z,85692.69
2024-02-14T17:28:55.373Z,85699.44
2024-02-14T17:31:22.041Z,85687.00
2024-02-14T17:33:48.948Z,85696.34
2024-02-14T17:36:15.778Z,85692.34
2024-02-14T17:38:42.498Z,85692.47
2024-02-14T17:41:09.222Z,85688.56
2024-02-14T17:43:38.045Z,85696.13
2024-02-14T17:46:05.393Z,85698.16
2024-02-14T17:48:33.655Z,85698.09
2024-02-14T17:51:01.110Z,85697.50
2024-02-14T17:53:28.681Z,85699.50
2024-02-14T17:55:55.387Z,85701.53
2024-02-14T17:58:22.387Z,85701.97
2024-02-14T18:00:49.502Z,85703.97
2024-02-14T18:03:16.295Z,85702.06
2024-02-14T18:05:45.030Z,85696.41
2024-02-14T18:08:11.933Z,85702.56
2024-02-14T18:10:38.683Z,85704.66
2024-02-14T18:13:05.681Z,85703.28
2024-02-14T18:15:32.473Z,85707.44
2024-02-14T18:17:59.209Z,85712.84
2024-02-14T18:20:26.427Z,85714.22
2024-02-14T18:22:53.121Z,85710.63
2024-02-14T18:25:20.602Z,85716.16
2024-02-14T18:27:47.228Z,85711.22
2024-02-14T18:30:13.959Z,85711.31
2024-02-14T18:32:42.343Z,85714.06
2024-02-14T18:35:09.310Z,85723.59
2024-02-14T18:37:35.988Z,85718.09
2024-02-14T18:40:02.789Z,85719.59
2024-02-14T18:42:29.547Z,85722.25
2024-02-14T18:44:56.398Z,85727.72
2024-02-14T18:47:23.301Z,85726.31
2024-02-14T18:49:50.088Z,85733.19
2024-02-14T18:52:16.784Z,85736.53
2024-02-14T18:54:43.477Z,85740.59
2024-02-14T18:57:10.721Z,85739.28
2024-02-14T18:59:38.093Z,85743.38
2024-02-14T19:02:07.658Z,85744.38
2024-02-14T19:04:34.542Z,85743.84
2024-02-14T19:07:01.411Z,85750.06
2024-02-14T19:09:30.209Z,85752.84
2024-02-14T19:11:57.011Z,85752.06
2024-02-14T19:14:25.647Z,85749.88
2024-02-14T19:16:52.485Z,85750.91
2024-02-14T19:19:19.908Z,85746.13
2024-02-14T19:21:47.337Z,85754.16
2024-02-14T19:24:13.978Z,85753.53
2024-02-14T19:26:40.774Z,85755.59
2024-02-14T19:29:07.476Z,85754.94
2024-02-14T19:31:34.724Z,85746.03
2024-02-14T19:34:01.437Z,85753.59
2024-02-14T19:36:28.420Z,85747.44
2024-02-14T19:38:55.433Z,85749.47
2024-02-14T19:41:22.397Z,85748.22
2024-02-14T19:43:49.160Z,85747.44
2024-02-14T19:46:16.082Z,85739.25
2024-02-14T19:48:42.927Z,85735.84
2024-02-14T19:51:09.797Z,85742.06
2024-02-14T19:53:37.149Z,85737.97
2024-02-14T19:56:04.900Z,85744.06
2024-02-14T19:58:32.275Z,85736.38
2024-02-14T20:00:59.001Z,85741.00
2024-02-14T20:03:25.709Z,85742.28
2024-02-14T20:05:52.459Z,85736.41
2024-02-14T20:08:20.054Z,85738.59
2024-02-14T20:10:46.982Z,85739.31
2024-02-14T20:13:13.841Z,85739.19
2024-02-14T20:15:40.519Z,85733.72
2024-02-14T20:18:07.430Z,85724.84
2024-02-14T20:20:34.319Z,85726.66
2024-02-14T20:23:01.365Z,85725.53
2024-02-14T20:25:28.640Z,85722.44
2024-02-14T20:27:55.461Z,85723.84
2024-02-14T20:30:22.369Z,85718.31
2024-02-14T20:32:49.321Z,85719.50
2024-02-14T20:35:16.358Z,85717.91
2024-02-14T20:37:44.108Z,85720.63
2024-02-14T20:40:10.885Z,85715.16
2024-02-14T20:42:37.647Z,85713.09
2024-02-14T20:45:04.731Z,85708.78
2024-02-14T20:47:31.535Z,85717.53
2024-02-14T20:49:59.865Z,85706.41
2024-02-14T20:52:28.374Z,85708.25
2024-02-14T20:54:55.962Z,85713.78
2024-02-14T20:57:22.953Z,85715.41
2024-02-14T20:59:50.682Z,85710.56
2024-02-14T21:02:18.884Z,85708.47
2024-02-14T21:04:45.717Z,85712.88
2024-02-14T21:07:12.894Z,85709.66
2024-02-14T21:09:40.411Z,85709.59
2024-02-14T21:12:07.454Z,85720.44
2024-02-14T21:14:34.204Z,85709.13
2024-02-14T21:17:01.014Z,85712.72
2024-02-14T21:19:27.949Z,85715.47
2024-02-14T21:21:54.685Z,85719.59
2024-02-14T21:24:21.985Z,85714.72
2024-02-14T21:26:50.523Z,85732.88
2024-02-14T21:29:17.149Z,85722.16
2024-02-14T21:31:44.221Z,85719.31
2024-02-14T21:34:11.173Z,85718.44
2024-02-14T21:36:38.466Z,85724.31
2024-02-14T21:39:05.219Z,85719.66
2024-02-14T21:41:36.137Z,85716.91
2024-02-14T21:44:04.138Z,85716.88
2024-02-14T21:46:30.818Z,85720.94
2024-02-14T21:48:58.878Z,85710.91
2024-02-14T21:51:26.994Z,85714.69
2024-02-14T21:53:53.838Z,85712.41
2024-02-14T21:56:21.396Z,85711.66
2024-02-14T21:58:48.249Z,85714.00
2024-02-14T22:01:15.207Z,85713.47
2024-02-14T22:03:43.135Z,85716.22
2024-02-14T22:06:09.923Z,85716.31
2024-02-14T22:08:36.748Z,85718.25
2024-02-14T22:11:03.866Z,85719.22
2024-02-14T22:13:32.264Z,85722.31
2024-02-14T22:15:59.005Z,85720.81
2024-02-14T22:18:26.741Z,85722.75
2024-02-14T22:20:54.210Z,85724.38
2024-02-14T22:23:20.925Z,85721.84
2024-02-14T22:25:47.868Z,85723.75
2024-02-14T22:28:14.623Z,85730.06
2024-02-14T22:30:42.737Z,85728.66
2024-02-14T22:33:11.431Z,85731.03
2024-02-14T22:35:38.407Z,85723.38
2024-02-14T22:38:09.922Z,85723.25
2024-02-14T22:40:37.035Z,85733.63
2024-02-14T22:43:06.448Z,85729.66
2024-02-14T22:45:33.269Z,85723.44
2024-02-14T22:48:01.330Z,85725.78
2024-02-14T22:50:28.135Z,85726.66
2024-02-14T22:52:54.849Z,85729.22
2024-02-14T22:55:21.536Z,85729.59
2024-02-14T22:57:49.450Z,85721.72
2024-02-14T23:00:23.513Z,85722.91
2024-02-14T23:02:51.256Z,85724.94
2024-02-14T23:05:21.571Z,85720.81
2024-02-14T23:07:48.795Z,85724.00
2024-02-14T23:10:17.097Z,85726.88
2024-02-14T23:12:44.257Z,85727.78
2024-02-14T23:15:13.296Z,85720.66
2024-02-14T23:17:40.399Z,85714.53
2024-02-14T23:20:07.827Z,85720.75
2024-02-14T23:22:35.958Z,85713.13
2024-02-14T23:25:02.865Z,85720.66
2024-02-14T23:27:29.873Z,85720.66
2024-02-14T23:29:56.698Z,85723.94
2024-02-14T23:32:23.678Z,85723.31
2024-02-14T23:34:50.324Z,85724.00
2024-02-14T23:37:16.962Z,85728.06
2024-02-14T23:39:44.430Z,85731.50
2024-02-14T23:42:11.206Z,85732.94
2024-02-14T23:44:38.400Z,85728.72
2024-02-14T23:47:05.224Z,85732.88
2024-02-14T23:49:31.910Z,85736.31
2024-02-14T23:51:58.668Z,85732.75
2024-02-14T23:54:25.308Z,85736.13
2024-02-14T23:56:52.048Z,85741.72
2024-02-14T23:59:18.814Z,85741.66
